sensor_id;sensor_type;location;lat;lon;timestamp;temperature;humidity
2751;DHT22;1383;48.362;10.908;2023-09-18T00:00:31;19.60;81.90
2751;DHT22;1383;48.362;10.908;2023-09-18T00:02:59;19.70;81.80
2751;DHT22;1383;48.362;10.908;2023-09-18T00:05:30;19.70;81.40
2751;DHT22;1383;48.362;10.908;2023-09-18T00:07:57;19.70;81.30
2751;DHT22;1383;48.362;10.908;2023-09-18T00:10:26;19.70;81.00
2751;DHT22;1383;48.362;10.908;2023-09-18T00:12:53;19.70;81.20
2751;DHT22;1383;48.362;10.908;2023-09-18T00:15:20;19.70;81.20
2751;DHT22;1383;48.362;10.908;2023-09-18T00:17:47;19.70;80.90
2751;DHT22;1383;48.362;10.908;2023-09-18T00:20:14;19.70;80.70
2751;DHT22;1383;48.362;10.908;2023-09-18T00:22:44;19.70;80.60
2751;DHT22;1383;48.362;10.908;2023-09-18T00:25:10;19.60;81.50
2751;DHT22;1383;48.362;10.908;2023-09-18T00:27:37;19.60;82.00
2751;DHT22;1383;48.362;10.908;2023-09-18T00:30:05;19.60;82.40
2751;DHT22;1383;48.362;10.908;2023-09-18T00:32:33;19.60;82.40
2751;DHT22;1383;48.362;10.908;2023-09-18T00:35:00;19.60;81.90
2751;DHT22;1383;48.362;10.908;2023-09-18T00:37:26;19.60;82.20
2751;DHT22;1383;48.362;10.908;2023-09-18T00:39:55;19.50;82.20
2751;DHT22;1383;48.362;10.908;2023-09-18T00:42:21;19.50;82.00
2751;DHT22;1383;48.362;10.908;2023-09-18T00:44:49;19.40;83.10
2751;DHT22;1383;48.362;10.908;2023-09-18T00:47:17;19.30;83.80
2751;DHT22;1383;48.362;10.908;2023-09-18T00:49:47;19.40;84.60
2751;DHT22;1383;48.362;10.908;2023-09-18T00:52:15;19.40;84.00
2751;DHT22;1383;48.362;10.908;2023-09-18T00:54:44;19.30;83.30
2751;DHT22;1383;48.362;10.908;2023-09-18T00:57:12;19.30;83.90
2751;DHT22;1383;48.362;10.908;2023-09-18T00:59:39;19.30;84.00
2751;DHT22;1383;48.362;10.908;2023-09-18T01:02:06;19.20;84.50
2751;DHT22;1383;48.362;10.908;2023-09-18T01:04:34;19.20;84.80
2751;DHT22;1383;48.362;10.908;2023-09-18T01:07:01;19.20;85.00
2751;DHT22;1383;48.362;10.908;2023-09-18T01:09:31;19.10;85.20
2751;DHT22;1383;48.362;10.908;2023-09-18T01:12:11;19.20;85.20
2751;DHT22;1383;48.362;10.908;2023-09-18T01:14:49;19.10;84.90
2751;DHT22;1383;48.362;10.908;2023-09-18T01:17:18;19.10;86.00
2751;DHT22;1383;48.362;10.908;2023-09-18T01:19:46;19.00;86.30
2751;DHT22;1383;48.362;10.908;2023-09-18T01:22:15;19.10;86.90
2751;DHT22;1383;48.362;10.908;2023-09-18T01:24:47;19.10;86.20
2751;DHT22;1383;48.362;10.908;2023-09-18T01:27:16;19.10;86.50
2751;DHT22;1383;48.362;10.908;2023-09-18T01:29:47;19.10;85.50
2751;DHT22;1383;48.362;10.908;2023-09-18T01:32:14;19.10;85.90
2751;DHT22;1383;48.362;10.908;2023-09-18T01:34:49;19.10;86.00
2751;DHT22;1383;48.362;10.908;2023-09-18T01:37:19;19.00;85.40
2751;DHT22;1383;48.362;10.908;2023-09-18T01:39:49;19.00;85.80
2751;DHT22;1383;48.362;10.908;2023-09-18T01:42:17;19.00;85.50
2751;DHT22;1383;48.362;10.908;2023-09-18T01:44:45;19.00;85.30
2751;DHT22;1383;48.362;10.908;2023-09-18T01:47:16;18.90;85.30
2751;DHT22;1383;48.362;10.908;2023-09-18T01:49:43;18.90;85.30
2751;DHT22;1383;48.362;10.908;2023-09-18T01:52:10;18.90;85.10
2751;DHT22;1383;48.362;10.908;2023-09-18T01:54:37;18.90;85.20
2751;DHT22;1383;48.362;10.908;2023-09-18T01:57:04;18.80;85.40
2751;DHT22;1383;48.362;10.908;2023-09-18T01:59:34;18.80;85.30
2751;DHT22;1383;48.362;10.908;2023-09-18T02:02:02;18.80;85.70
2751;DHT22;1383;48.362;10.908;2023-09-18T02:04:34;18.70;86.30
2751;DHT22;1383;48.362;10.908;2023-09-18T02:07:20;18.80;86.80
2751;DHT22;1383;48.362;10.908;2023-09-18T02:09:47;18.80;86.80
2751;DHT22;1383;48.362;10.908;2023-09-18T02:12:14;18.90;87.30
2751;DHT22;1383;48.362;10.908;2023-09-18T02:14:44;18.90;86.70
2751;DHT22;1383;48.362;10.908;2023-09-18T02:17:11;19.00;86.80
2751;DHT22;1383;48.362;10.908;2023-09-18T02:19:38;19.00;86.50
2751;DHT22;1383;48.362;10.908;2023-09-18T02:22:05;19.00;86.90
2751;DHT22;1383;48.362;10.908;2023-09-18T02:24:33;19.00;86.20
2751;DHT22;1383;48.362;10.908;2023-09-18T02:27:03;19.10;86.90
2751;DHT22;1383;48.362;10.908;2023-09-18T02:29:30;19.10;85.90
2751;DHT22;1383;48.362;10.908;2023-09-18T02:31:57;19.20;84.90
2751;DHT22;1383;48.362;10.908;2023-09-18T02:34:24;19.20;84.50
2751;DHT22;1383;48.362;10.908;2023-09-18T02:36:51;19.20;84.70
2751;DHT22;1383;48.362;10.908;2023-09-18T02:39:18;19.20;84.10
2751;DHT22;1383;48.362;10.908;2023-09-18T02:41:45;19.30;83.80
2751;DHT22;1383;48.362;10.908;2023-09-18T02:44:12;19.30;83.60
2751;DHT22;1383;48.362;10.908;2023-09-18T02:46:42;19.30;83.00
2751;DHT22;1383;48.362;10.908;2023-09-18T02:49:10;19.20;84.70
2751;DHT22;1383;48.362;10.908;2023-09-18T02:51:37;19.10;85.20
2751;DHT22;1383;48.362;10.908;2023-09-18T02:54:04;19.00;85.10
2751;DHT22;1383;48.362;10.908;2023-09-18T02:56:31;18.80;85.90
2751;DHT22;1383;48.362;10.908;2023-09-18T02:58:57;18.70;87.30
2751;DHT22;1383;48.362;10.908;2023-09-18T03:01:24;18.70;88.00
2751;DHT22;1383;48.362;10.908;2023-09-18T03:03:52;18.70;88.10
2751;DHT22;1383;48.362;10.908;2023-09-18T03:06:19;18.60;87.30
2751;DHT22;1383;48.362;10.908;2023-09-18T03:08:46;18.60;87.90
2751;DHT22;1383;48.362;10.908;2023-09-18T03:11:13;18.60;88.00
2751;DHT22;1383;48.362;10.908;2023-09-18T03:13:45;18.60;87.90
2751;DHT22;1383;48.362;10.908;2023-09-18T03:16:15;18.60;87.80
2751;DHT22;1383;48.362;10.908;2023-09-18T03:18:42;18.50;88.20
2751;DHT22;1383;48.362;10.908;2023-09-18T03:21:09;18.50;88.50
2751;DHT22;1383;48.362;10.908;2023-09-18T03:23:36;18.50;88.70
2751;DHT22;1383;48.362;10.908;2023-09-18T03:26:03;18.50;89.20
2751;DHT22;1383;48.362;10.908;2023-09-18T03:28:30;18.60;88.30
2751;DHT22;1383;48.362;10.908;2023-09-18T03:30:58;18.50;87.70
2751;DHT22;1383;48.362;10.908;2023-09-18T03:33:25;18.50;88.10
2751;DHT22;1383;48.362;10.908;2023-09-18T03:35:52;18.50;87.90
2751;DHT22;1383;48.362;10.908;2023-09-18T03:38:21;18.50;87.60
2751;DHT22;1383;48.362;10.908;2023-09-18T03:40:49;18.40;87.20
2751;DHT22;1383;48.362;10.908;2023-09-18T03:43:16;18.40;86.70
2751;DHT22;1383;48.362;10.908;2023-09-18T03:45:43;18.40;87.10
2751;DHT22;1383;48.362;10.908;2023-09-18T03:48:11;18.40;87.00
2751;DHT22;1383;48.362;10.908;2023-09-18T03:50:38;18.30;87.50
2751;DHT22;1383;48.362;10.908;2023-09-18T03:53:06;18.30;86.90
2751;DHT22;1383;48.362;10.908;2023-09-18T03:55:34;18.20;87.50
2751;DHT22;1383;48.362;10.908;2023-09-18T03:58:00;18.20;88.10
2751;DHT22;1383;48.362;10.908;2023-09-18T04:00:27;18.20;88.60
2751;DHT22;1383;48.362;10.908;2023-09-18T04:02:54;18.20;88.50
2751;DHT22;1383;48.362;10.908;2023-09-18T04:05:22;18.10;88.10
2751;DHT22;1383;48.362;10.908;2023-09-18T04:07:49;18.10;89.20
2751;DHT22;1383;48.362;10.908;2023-09-18T04:10:15;18.00;89.50
2751;DHT22;1383;48.362;10.908;2023-09-18T04:12:52;18.00;90.10
2751;DHT22;1383;48.362;10.908;2023-09-18T04:15:19;18.00;90.10
2751;DHT22;1383;48.362;10.908;2023-09-18T04:17:47;17.90;90.10
2751;DHT22;1383;48.362;10.908;2023-09-18T04:20:14;18.00;90.60
2751;DHT22;1383;48.362;10.908;2023-09-18T04:22:45;18.00;90.90
2751;DHT22;1383;48.362;10.908;2023-09-18T04:25:17;17.90;90.80
2751;DHT22;1383;48.362;10.908;2023-09-18T04:27:46;17.90;90.90
2751;DHT22;1383;48.362;10.908;2023-09-18T04:30:17;17.90;90.80
2751;DHT22;1383;48.362;10.908;2023-09-18T04:32:50;17.90;91.00
2751;DHT22;1383;48.362;10.908;2023-09-18T04:35:18;17.90;91.10
2751;DHT22;1383;48.362;10.908;2023-09-18T04:37:45;17.90;91.00
2751;DHT22;1383;48.362;10.908;2023-09-18T04:40:12;17.80;90.90
2751;DHT22;1383;48.362;10.908;2023-09-18T04:42:39;17.80;90.90
2751;DHT22;1383;48.362;10.908;2023-09-18T04:45:07;17.70;91.50
2751;DHT22;1383;48.362;10.908;2023-09-18T04:47:34;17.70;91.50
2751;DHT22;1383;48.362;10.908;2023-09-18T04:50:01;17.70;91.70
2751;DHT22;1383;48.362;10.908;2023-09-18T04:52:38;17.70;91.50
2751;DHT22;1383;48.362;10.908;2023-09-18T04:55:05;17.70;91.70
2751;DHT22;1383;48.362;10.908;2023-09-18T04:57:33;17.70;91.50
2751;DHT22;1383;48.362;10.908;2023-09-18T05:00:01;17.60;91.60
2751;DHT22;1383;48.362;10.908;2023-09-18T05:02:43;17.60;91.60
2751;DHT22;1383;48.362;10.908;2023-09-18T05:05:10;17.50;91.50
2751;DHT22;1383;48.362;10.908;2023-09-18T05:07:38;17.50;91.50
2751;DHT22;1383;48.362;10.908;2023-09-18T05:10:05;17.60;91.40
2751;DHT22;1383;48.362;10.908;2023-09-18T05:12:32;17.60;91.20
2751;DHT22;1383;48.362;10.908;2023-09-18T05:14:59;17.70;91.00
2751;DHT22;1383;48.362;10.908;2023-09-18T05:17:46;17.80;90.80
2751;DHT22;1383;48.362;10.908;2023-09-18T05:20:16;17.90;90.70
2751;DHT22;1383;48.362;10.908;2023-09-18T05:22:44;17.90;90.10
2751;DHT22;1383;48.362;10.908;2023-09-18T05:25:12;18.00;90.10
2751;DHT22;1383;48.362;10.908;2023-09-18T05:27:42;18.10;89.80
2751;DHT22;1383;48.362;10.908;2023-09-18T05:30:13;18.20;89.60
2751;DHT22;1383;48.362;10.908;2023-09-18T05:32:42;18.40;87.50
2751;DHT22;1383;48.362;10.908;2023-09-18T05:35:10;18.50;85.90
2751;DHT22;1383;48.362;10.908;2023-09-18T05:37:40;18.40;84.10
2751;DHT22;1383;48.362;10.908;2023-09-18T05:40:08;18.30;85.70
2751;DHT22;1383;48.362;10.908;2023-09-18T05:42:40;18.30;84.60
2751;DHT22;1383;48.362;10.908;2023-09-18T05:45:13;18.30;85.30
2751;DHT22;1383;48.362;10.908;2023-09-18T05:47:42;18.20;84.40
2751;DHT22;1383;48.362;10.908;2023-09-18T05:50:11;18.20;85.30
2751;DHT22;1383;48.362;10.908;2023-09-18T05:52:45;18.30;86.10
2751;DHT22;1383;48.362;10.908;2023-09-18T05:55:13;18.40;85.50
2751;DHT22;1383;48.362;10.908;2023-09-18T05:57:40;18.40;84.40
2751;DHT22;1383;48.362;10.908;2023-09-18T06:00:08;18.40;83.40
2751;DHT22;1383;48.362;10.908;2023-09-18T06:02:35;18.50;82.80
2751;DHT22;1383;48.362;10.908;2023-09-18T06:05:02;18.60;83.00
2751;DHT22;1383;48.362;10.908;2023-09-18T06:07:33;18.50;82.90
2751;DHT22;1383;48.362;10.908;2023-09-18T06:10:00;18.60;83.80
2751;DHT22;1383;48.362;10.908;2023-09-18T06:12:27;18.70;83.00
2751;DHT22;1383;48.362;10.908;2023-09-18T06:14:53;18.80;82.50
2751;DHT22;1383;48.362;10.908;2023-09-18T06:17:20;18.80;82.50
2751;DHT22;1383;48.362;10.908;2023-09-18T06:19:47;18.90;82.40
2751;DHT22;1383;48.362;10.908;2023-09-18T06:22:14;18.90;81.70
2751;DHT22;1383;48.362;10.908;2023-09-18T06:24:42;19.00;81.90
2751;DHT22;1383;48.362;10.908;2023-09-18T06:27:09;19.00;80.80
2751;DHT22;1383;48.362;10.908;2023-09-18T06:29:35;18.90;81.30
2751;DHT22;1383;48.362;10.908;2023-09-18T06:32:05;18.90;82.60
2751;DHT22;1383;48.362;10.908;2023-09-18T06:34:33;18.90;82.40
2751;DHT22;1383;48.362;10.908;2023-09-18T06:37:00;19.10;82.70
2751;DHT22;1383;48.362;10.908;2023-09-18T06:39:27;19.20;82.50
2751;DHT22;1383;48.362;10.908;2023-09-18T06:41:54;19.40;82.00
2751;DHT22;1383;48.362;10.908;2023-09-18T06:44:20;19.70;81.20
2751;DHT22;1383;48.362;10.908;2023-09-18T06:46:50;20.00;77.80
2751;DHT22;1383;48.362;10.908;2023-09-18T06:49:17;20.20;74.90
2751;DHT22;1383;48.362;10.908;2023-09-18T06:51:46;20.50;71.70
2751;DHT22;1383;48.362;10.908;2023-09-18T06:54:13;20.80;70.10
2751;DHT22;1383;48.362;10.908;2023-09-18T06:56:40;21.10;68.90
2751;DHT22;1383;48.362;10.908;2023-09-18T06:59:08;21.40;66.20
2751;DHT22;1383;48.362;10.908;2023-09-18T07:01:35;21.50;63.70
2751;DHT22;1383;48.362;10.908;2023-09-18T07:04:02;21.60;63.50
2751;DHT22;1383;48.362;10.908;2023-09-18T07:06:31;21.80;62.90
2751;DHT22;1383;48.362;10.908;2023-09-18T07:08:58;22.10;62.20
2751;DHT22;1383;48.362;10.908;2023-09-18T07:11:26;22.30;60.30
2751;DHT22;1383;48.362;10.908;2023-09-18T07:13:53;22.50;58.20
2751;DHT22;1383;48.362;10.908;2023-09-18T07:16:19;22.60;58.10
2751;DHT22;1383;48.362;10.908;2023-09-18T07:18:46;22.70;57.80
2751;DHT22;1383;48.362;10.908;2023-09-18T07:21:13;23.00;56.10
2751;DHT22;1383;48.362;10.908;2023-09-18T07:23:40;23.20;54.90
2751;DHT22;1383;48.362;10.908;2023-09-18T07:26:07;23.50;54.20
2751;DHT22;1383;48.362;10.908;2023-09-18T07:28:35;23.70;53.30
2751;DHT22;1383;48.362;10.908;2023-09-18T07:31:08;23.70;52.60
2751;DHT22;1383;48.362;10.908;2023-09-18T07:33:36;23.80;52.50
2751;DHT22;1383;48.362;10.908;2023-09-18T07:36:03;23.80;52.00
2751;DHT22;1383;48.362;10.908;2023-09-18T07:38:30;23.80;51.90
2751;DHT22;1383;48.362;10.908;2023-09-18T07:40:58;24.10;52.90
2751;DHT22;1383;48.362;10.908;2023-09-18T07:43:25;24.30;51.10
2751;DHT22;1383;48.362;10.908;2023-09-18T07:45:53;24.40;50.20
2751;DHT22;1383;48.362;10.908;2023-09-18T07:48:22;24.40;50.00
2751;DHT22;1383;48.362;10.908;2023-09-18T07:50:49;24.50;50.10
2751;DHT22;1383;48.362;10.908;2023-09-18T07:53:18;24.70;49.50
2751;DHT22;1383;48.362;10.908;2023-09-18T07:55:47;24.90;49.30
2751;DHT22;1383;48.362;10.908;2023-09-18T07:58:14;25.10;48.30
2751;DHT22;1383;48.362;10.908;2023-09-18T08:00:40;25.30;48.10
2751;DHT22;1383;48.362;10.908;2023-09-18T08:03:07;25.40;47.10
2751;DHT22;1383;48.362;10.908;2023-09-18T08:05:34;25.50;47.10
2751;DHT22;1383;48.362;10.908;2023-09-18T08:08:01;25.50;46.20
2751;DHT22;1383;48.362;10.908;2023-09-18T08:10:31;25.50;46.20
2751;DHT22;1383;48.362;10.908;2023-09-18T08:12:58;25.60;45.90
2751;DHT22;1383;48.362;10.908;2023-09-18T08:19:16;25.70;46.00
2751;DHT22;1383;48.362;10.908;2023-09-18T08:21:43;25.90;45.60
2751;DHT22;1383;48.362;10.908;2023-09-18T08:24:10;26.00;45.20
2751;DHT22;1383;48.362;10.908;2023-09-18T08:26:37;26.10;44.40
2751;DHT22;1383;48.362;10.908;2023-09-18T08:29:27;26.10;44.30
2751;DHT22;1383;48.362;10.908;2023-09-18T08:31:54;26.20;44.10
2751;DHT22;1383;48.362;10.908;2023-09-18T08:34:21;26.30;44.00
2751;DHT22;1383;48.362;10.908;2023-09-18T08:36:50;26.40;44.00
2751;DHT22;1383;48.362;10.908;2023-09-18T08:39:17;26.60;43.70
2751;DHT22;1383;48.362;10.908;2023-09-18T08:41:45;26.80;43.00
2751;DHT22;1383;48.362;10.908;2023-09-18T08:44:15;26.90;43.40
2751;DHT22;1383;48.362;10.908;2023-09-18T08:46:42;27.10;42.30
2751;DHT22;1383;48.362;10.908;2023-09-18T08:49:11;27.10;41.60
2751;DHT22;1383;48.362;10.908;2023-09-18T08:51:38;27.30;41.70
2751;DHT22;1383;48.362;10.908;2023-09-18T08:54:06;27.60;41.20
2751;DHT22;1383;48.362;10.908;2023-09-18T08:56:33;27.70;39.70
2751;DHT22;1383;48.362;10.908;2023-09-18T08:59:01;27.60;39.00
2751;DHT22;1383;48.362;10.908;2023-09-18T09:01:28;27.80;39.00
2751;DHT22;1383;48.362;10.908;2023-09-18T09:03:54;27.90;38.80
2751;DHT22;1383;48.362;10.908;2023-09-18T09:06:22;27.90;38.50
2751;DHT22;1383;48.362;10.908;2023-09-18T09:08:50;28.10;38.20
2751;DHT22;1383;48.362;10.908;2023-09-18T09:11:17;28.20;37.80
2751;DHT22;1383;48.362;10.908;2023-09-18T09:13:46;28.20;37.10
2751;DHT22;1383;48.362;10.908;2023-09-18T09:16:13;28.20;37.30
2751;DHT22;1383;48.362;10.908;2023-09-18T09:18:49;28.10;36.80
2751;DHT22;1383;48.362;10.908;2023-09-18T09:21:17;28.10;36.50
2751;DHT22;1383;48.362;10.908;2023-09-18T09:23:52;27.90;36.60
2751;DHT22;1383;48.362;10.908;2023-09-18T09:26:21;27.90;37.10
2751;DHT22;1383;48.362;10.908;2023-09-18T09:28:50;27.90;37.80
2751;DHT22;1383;48.362;10.908;2023-09-18T09:31:28;28.00;37.20
2751;DHT22;1383;48.362;10.908;2023-09-18T09:33:56;28.10;37.40
2751;DHT22;1383;48.362;10.908;2023-09-18T09:36:24;28.20;36.60
2751;DHT22;1383;48.362;10.908;2023-09-18T09:38:58;28.30;36.50
2751;DHT22;1383;48.362;10.908;2023-09-18T09:41:26;28.30;35.90
2751;DHT22;1383;48.362;10.908;2023-09-18T09:43:57;28.00;36.20
2751;DHT22;1383;48.362;10.908;2023-09-18T09:46:24;27.90;36.90
2751;DHT22;1383;48.362;10.908;2023-09-18T09:49:02;27.90;36.00
2751;DHT22;1383;48.362;10.908;2023-09-18T09:51:29;27.90;35.70
2751;DHT22;1383;48.362;10.908;2023-09-18T09:53:56;27.80;36.60
2751;DHT22;1383;48.362;10.908;2023-09-18T09:59:12;27.50;36.50
2751;DHT22;1383;48.362;10.908;2023-09-18T10:01:40;27.40;36.60
2751;DHT22;1383;48.362;10.908;2023-09-18T10:04:13;27.30;35.30
2751;DHT22;1383;48.362;10.908;2023-09-18T10:06:43;27.20;35.20
2751;DHT22;1383;48.362;10.908;2023-09-18T10:09:12;26.90;35.60
2751;DHT22;1383;48.362;10.908;2023-09-18T10:11:45;26.70;35.90
2751;DHT22;1383;48.362;10.908;2023-09-18T10:14:20;26.70;36.30
2751;DHT22;1383;48.362;10.908;2023-09-18T10:16:53;26.80;36.00
2751;DHT22;1383;48.362;10.908;2023-09-18T10:19:33;26.90;35.80
2751;DHT22;1383;48.362;10.908;2023-09-18T10:24:46;26.60;36.00
2751;DHT22;1383;48.362;10.908;2023-09-18T10:27:14;26.60;36.20
2751;DHT22;1383;48.362;10.908;2023-09-18T10:29:41;26.60;36.90
2751;DHT22;1383;48.362;10.908;2023-09-18T10:32:11;26.30;36.90
2751;DHT22;1383;48.362;10.908;2023-09-18T10:34:41;26.20;37.90
2751;DHT22;1383;48.362;10.908;2023-09-18T10:37:10;26.20;38.30
2751;DHT22;1383;48.362;10.908;2023-09-18T10:39:39;26.10;38.90
2751;DHT22;1383;48.362;10.908;2023-09-18T10:42:09;26.10;39.80
2751;DHT22;1383;48.362;10.908;2023-09-18T10:44:37;26.10;39.70
2751;DHT22;1383;48.362;10.908;2023-09-18T10:47:08;26.10;40.00
2751;DHT22;1383;48.362;10.908;2023-09-18T10:49:40;26.00;40.20
2751;DHT22;1383;48.362;10.908;2023-09-18T10:52:11;26.00;41.70
2751;DHT22;1383;48.362;10.908;2023-09-18T10:54:40;25.90;42.50
2751;DHT22;1383;48.362;10.908;2023-09-18T10:57:07;25.70;43.10
2751;DHT22;1383;48.362;10.908;2023-09-18T10:59:34;25.50;43.00
2751;DHT22;1383;48.362;10.908;2023-09-18T11:02:10;25.20;43.90
2751;DHT22;1383;48.362;10.908;2023-09-18T11:04:37;24.90;43.60
2751;DHT22;1383;48.362;10.908;2023-09-18T11:07:07;24.70;44.10
2751;DHT22;1383;48.362;10.908;2023-09-18T11:09:43;24.70;44.50
2751;DHT22;1383;48.362;10.908;2023-09-18T11:12:11;24.50;44.90
2751;DHT22;1383;48.362;10.908;2023-09-18T11:14:56;24.40;45.30
2751;DHT22;1383;48.362;10.908;2023-09-18T11:17:36;24.30;46.50
2751;DHT22;1383;48.362;10.908;2023-09-18T11:22:40;24.10;48.60
2751;DHT22;1383;48.362;10.908;2023-09-18T11:25:34;23.90;50.10
2751;DHT22;1383;48.362;10.908;2023-09-18T11:28:03;23.90;52.90
2751;DHT22;1383;48.362;10.908;2023-09-18T11:30:30;23.70;53.70
2751;DHT22;1383;48.362;10.908;2023-09-18T11:32:57;23.30;55.40
2751;DHT22;1383;48.362;10.908;2023-09-18T11:35:25;23.10;57.40
2751;DHT22;1383;48.362;10.908;2023-09-18T11:40:34;22.50;61.10
2751;DHT22;1383;48.362;10.908;2023-09-18T11:43:25;22.40;62.70
2751;DHT22;1383;48.362;10.908;2023-09-18T11:45:53;22.20;63.50
2751;DHT22;1383;48.362;10.908;2023-09-18T11:48:23;21.90;65.30
2751;DHT22;1383;48.362;10.908;2023-09-18T11:50:52;21.80;67.80
2751;DHT22;1383;48.362;10.908;2023-09-18T11:53:21;21.60;69.70
2751;DHT22;1383;48.362;10.908;2023-09-18T11:55:50;21.60;71.10
2751;DHT22;1383;48.362;10.908;2023-09-18T11:58:17;21.40;72.10
2751;DHT22;1383;48.362;10.908;2023-09-18T12:00:46;21.20;74.30
2751;DHT22;1383;48.362;10.908;2023-09-18T12:03:20;21.20;75.90
2751;DHT22;1383;48.362;10.908;2023-09-18T12:05:57;21.10;75.80
2751;DHT22;1383;48.362;10.908;2023-09-18T12:08:25;21.00;77.80
2751;DHT22;1383;48.362;10.908;2023-09-18T12:10:58;20.80;77.00
2751;DHT22;1383;48.362;10.908;2023-09-18T12:13:25;20.60;80.60
2751;DHT22;1383;48.362;10.908;2023-09-18T12:16:01;20.50;83.80
2751;DHT22;1383;48.362;10.908;2023-09-18T12:18:32;20.40;84.90
2751;DHT22;1383;48.362;10.908;2023-09-18T12:21:02;20.20;85.20
2751;DHT22;1383;48.362;10.908;2023-09-18T12:23:40;20.00;84.20
2751;DHT22;1383;48.362;10.908;2023-09-18T12:26:07;19.90;85.90
2751;DHT22;1383;48.362;10.908;2023-09-18T12:28:35;19.90;89.30
2751;DHT22;1383;48.362;10.908;2023-09-18T12:31:03;19.80;90.70
2751;DHT22;1383;48.362;10.908;2023-09-18T12:33:34;19.80;91.90
2751;DHT22;1383;48.362;10.908;2023-09-18T12:36:03;19.80;92.40
2751;DHT22;1383;48.362;10.908;2023-09-18T12:38:32;19.80;91.80
2751;DHT22;1383;48.362;10.908;2023-09-18T12:41:00;19.80;92.10
2751;DHT22;1383;48.362;10.908;2023-09-18T12:43:39;19.80;93.20
2751;DHT22;1383;48.362;10.908;2023-09-18T12:46:08;19.80;92.80
2751;DHT22;1383;48.362;10.908;2023-09-18T12:48:39;19.80;92.80
2751;DHT22;1383;48.362;10.908;2023-09-18T12:51:13;19.80;92.80
2751;DHT22;1383;48.362;10.908;2023-09-18T12:53:41;19.80;93.10
2751;DHT22;1383;48.362;10.908;2023-09-18T12:56:11;19.90;93.10
2751;DHT22;1383;48.362;10.908;2023-09-18T12:58:41;20.00;93.40
2751;DHT22;1383;48.362;10.908;2023-09-18T13:01:32;20.00;93.40
2751;DHT22;1383;48.362;10.908;2023-09-18T13:03:59;20.10;93.30
2751;DHT22;1383;48.362;10.908;2023-09-18T13:06:32;20.10;92.50
2751;DHT22;1383;48.362;10.908;2023-09-18T13:09:15;20.20;92.50
2751;DHT22;1383;48.362;10.908;2023-09-18T13:11:55;20.20;91.50
2751;DHT22;1383;48.362;10.908;2023-09-18T13:14:23;20.20;90.30
2751;DHT22;1383;48.362;10.908;2023-09-18T13:16:51;20.30;90.70
2751;DHT22;1383;48.362;10.908;2023-09-18T13:19:18;20.20;88.50
2751;DHT22;1383;48.362;10.908;2023-09-18T13:21:49;20.30;86.20
2751;DHT22;1383;48.362;10.908;2023-09-18T13:24:28;20.40;85.80
2751;DHT22;1383;48.362;10.908;2023-09-18T13:26:57;20.50;85.80
2751;DHT22;1383;48.362;10.908;2023-09-18T13:29:25;20.60;83.70
2751;DHT22;1383;48.362;10.908;2023-09-18T13:31:52;20.50;80.60
2751;DHT22;1383;48.362;10.908;2023-09-18T13:34:19;20.60;79.00
2751;DHT22;1383;48.362;10.908;2023-09-18T13:36:48;20.60;77.80
2751;DHT22;1383;48.362;10.908;2023-09-18T13:39:15;20.70;78.40
2751;DHT22;1383;48.362;10.908;2023-09-18T13:41:44;20.70;79.00
2751;DHT22;1383;48.362;10.908;2023-09-18T13:44:11;20.80;77.80
2751;DHT22;1383;48.362;10.908;2023-09-18T13:46:38;20.80;78.10
2751;DHT22;1383;48.362;10.908;2023-09-18T13:49:05;20.90;77.20
2751;DHT22;1383;48.362;10.908;2023-09-18T13:51:33;20.80;74.30
2751;DHT22;1383;48.362;10.908;2023-09-18T13:54:00;20.50;73.90
2751;DHT22;1383;48.362;10.908;2023-09-18T13:56:27;20.60;77.60
2751;DHT22;1383;48.362;10.908;2023-09-18T13:58:58;20.80;77.20
2751;DHT22;1383;48.362;10.908;2023-09-18T14:01:25;20.60;78.00
2751;DHT22;1383;48.362;10.908;2023-09-18T14:03:54;20.60;79.00
2751;DHT22;1383;48.362;10.908;2023-09-18T14:06:21;20.80;79.20
2751;DHT22;1383;48.362;10.908;2023-09-18T14:08:49;21.00;77.40
2751;DHT22;1383;48.362;10.908;2023-09-18T14:11:15;21.00;74.20
2751;DHT22;1383;48.362;10.908;2023-09-18T14:13:43;21.00;73.40
2751;DHT22;1383;48.362;10.908;2023-09-18T14:16:09;21.00;73.80
2751;DHT22;1383;48.362;10.908;2023-09-18T14:18:37;21.00;72.70
2751;DHT22;1383;48.362;10.908;2023-09-18T14:21:05;20.90;72.50
2751;DHT22;1383;48.362;10.908;2023-09-18T14:23:33;21.00;74.10
2751;DHT22;1383;48.362;10.908;2023-09-18T14:26:04;21.00;73.70
2751;DHT22;1383;48.362;10.908;2023-09-18T14:28:31;21.10;74.10
2751;DHT22;1383;48.362;10.908;2023-09-18T14:31:02;21.20;73.60
2751;DHT22;1383;48.362;10.908;2023-09-18T14:33:29;21.40;73.60
2751;DHT22;1383;48.362;10.908;2023-09-18T14:35:56;21.40;71.50
2751;DHT22;1383;48.362;10.908;2023-09-18T14:38:23;21.30;71.50
2751;DHT22;1383;48.362;10.908;2023-09-18T14:40:50;21.30;72.80
2751;DHT22;1383;48.362;10.908;2023-09-18T14:43:17;21.30;71.00
2751;DHT22;1383;48.362;10.908;2023-09-18T14:45:44;21.30;70.20
2751;DHT22;1383;48.362;10.908;2023-09-18T14:48:11;21.00;68.50
2751;DHT22;1383;48.362;10.908;2023-09-18T14:50:38;21.00;71.10
2751;DHT22;1383;48.362;10.908;2023-09-18T14:53:05;21.10;71.30
2751;DHT22;1383;48.362;10.908;2023-09-18T14:55:34;21.20;71.40
2751;DHT22;1383;48.362;10.908;2023-09-18T14:58:02;21.40;71.30
2751;DHT22;1383;48.362;10.908;2023-09-18T15:00:29;21.50;71.20
2751;DHT22;1383;48.362;10.908;2023-09-18T15:02:56;21.50;70.30
2751;DHT22;1383;48.362;10.908;2023-09-18T15:05:23;21.60;71.20
2751;DHT22;1383;48.362;10.908;2023-09-18T15:07:50;21.60;70.90
2751;DHT22;1383;48.362;10.908;2023-09-18T15:10:17;21.70;70.70
2751;DHT22;1383;48.362;10.908;2023-09-18T15:12:44;21.80;70.80
2751;DHT22;1383;48.362;10.908;2023-09-18T15:15:11;21.90;70.30
2751;DHT22;1383;48.362;10.908;2023-09-18T15:17:38;21.80;68.30
2751;DHT22;1383;48.362;10.908;2023-09-18T15:20:06;21.70;69.90
2751;DHT22;1383;48.362;10.908;2023-09-18T15:22:33;21.60;70.00
2751;DHT22;1383;48.362;10.908;2023-09-18T15:25:00;21.50;70.00
2751;DHT22;1383;48.362;10.908;2023-09-18T15:27:28;21.50;71.50
2751;DHT22;1383;48.362;10.908;2023-09-18T15:29:55;21.40;72.20
2751;DHT22;1383;48.362;10.908;2023-09-18T15:32:22;21.40;72.10
2751;DHT22;1383;48.362;10.908;2023-09-18T15:34:49;21.30;72.00
2751;DHT22;1383;48.362;10.908;2023-09-18T15:37:16;21.40;73.80
2751;DHT22;1383;48.362;10.908;2023-09-18T15:39:43;21.40;73.40
2751;DHT22;1383;48.362;10.908;2023-09-18T15:42:10;21.30;73.30
2751;DHT22;1383;48.362;10.908;2023-09-18T15:44:37;21.10;75.80
2751;DHT22;1383;48.362;10.908;2023-09-18T15:47:04;21.20;75.40
2751;DHT22;1383;48.362;10.908;2023-09-18T15:49:32;21.30;72.30
2751;DHT22;1383;48.362;10.908;2023-09-18T15:51:59;21.30;68.10
2751;DHT22;1383;48.362;10.908;2023-09-18T15:54:25;21.30;66.90
2751;DHT22;1383;48.362;10.908;2023-09-18T15:56:52;21.30;65.40
2751;DHT22;1383;48.362;10.908;2023-09-18T15:59:20;21.30;66.40
2751;DHT22;1383;48.362;10.908;2023-09-18T16:01:48;21.40;66.00
2751;DHT22;1383;48.362;10.908;2023-09-18T16:04:15;21.30;64.30
2751;DHT22;1383;48.362;10.908;2023-09-18T16:06:42;21.40;65.20
2751;DHT22;1383;48.362;10.908;2023-09-18T16:09:10;21.40;65.20